sensor_id;sensor_type;location;lat;lon;timestamp;temperature;humidity
68480;DHT22;55469;48.934;12.050;2023-03-19T00:01:28;9.90;90.00
68480;DHT22;55469;48.934;12.050;2023-03-19T00:03:54;9.90;90.10
68480;DHT22;55469;48.934;12.050;2023-03-19T00:06:20;9.90;90.10
68480;DHT22;55469;48.934;12.050;2023-03-19T00:08:47;9.90;90.10
68480;DHT22;55469;48.934;12.050;2023-03-19T00:11:13;9.90;90.10
68480;DHT22;55469;48.934;12.050;2023-03-19T00:13:39;9.90;90.10
68480;DHT22;55469;48.934;12.050;2023-03-19T00:16:06;9.90;90.00
68480;DHT22;55469;48.934;12.050;2023-03-19T00:18:32;9.90;90.10
68480;DHT22;55469;48.934;12.050;2023-03-19T00:20:58;9.90;90.50
68480;DHT22;55469;48.934;12.050;2023-03-19T00:23:23;9.80;90.00
68480;DHT22;55469;48.934;12.050;2023-03-19T00:25:49;9.80;90.00
68480;DHT22;55469;48.934;12.050;2023-03-19T00:28:15;9.80;90.00
68480;DHT22;55469;48.934;12.050;2023-03-19T00:30:41;9.80;90.00
68480;DHT22;55469;48.934;12.050;2023-03-19T00:33:09;9.80;90.10
68480;DHT22;55469;48.934;12.050;2023-03-19T00:35:35;9.80;90.10
68480;DHT22;55469;48.934;12.050;2023-03-19T00:38:01;9.80;90.10
68480;DHT22;55469;48.934;12.050;2023-03-19T00:40:27;9.80;90.10
68480;DHT22;55469;48.934;12.050;2023-03-19T00:42:52;9.80;90.10
68480;DHT22;55469;48.934;12.050;2023-03-19T00:45:18;9.70;90.10
68480;DHT22;55469;48.934;12.050;2023-03-19T00:47:44;9.70;90.10
68480;DHT22;55469;48.934;12.050;2023-03-19T00:50:10;9.70;90.10
68480;DHT22;55469;48.934;12.050;2023-03-19T00:52:36;9.70;90.10
68480;DHT22;55469;48.934;12.050;2023-03-19T00:55:02;9.70;90.10
68480;DHT22;55469;48.934;12.050;2023-03-19T00:57:27;9.70;90.10
68480;DHT22;55469;48.934;12.050;2023-03-19T00:59:53;9.60;90.10
68480;DHT22;55469;48.934;12.050;2023-03-19T01:02:19;9.60;90.10
68480;DHT22;55469;48.934;12.050;2023-03-19T01:04:47;9.60;90.20
68480;DHT22;55469;48.934;12.050;2023-03-19T01:07:13;9.60;90.20
68480;DHT22;55469;48.934;12.050;2023-03-19T01:09:39;9.60;90.20
68480;DHT22;55469;48.934;12.050;2023-03-19T01:12:06;9.60;90.20
68480;DHT22;55469;48.934;12.050;2023-03-19T01:14:33;9.60;90.20
68480;DHT22;55469;48.934;12.050;2023-03-19T01:16:59;9.50;90.20
68480;DHT22;55469;48.934;12.050;2023-03-19T01:19:25;9.50;90.20
68480;DHT22;55469;48.934;12.050;2023-03-19T01:21:51;9.50;90.20
68480;DHT22;55469;48.934;12.050;2023-03-19T01:24:17;9.50;90.20
68480;DHT22;55469;48.934;12.050;2023-03-19T01:26:43;9.50;90.30
68480;DHT22;55469;48.934;12.050;2023-03-19T01:29:08;9.50;90.30
68480;DHT22;55469;48.934;12.050;2023-03-19T01:31:35;9.50;90.30
68480;DHT22;55469;48.934;12.050;2023-03-19T01:34:01;9.50;90.30
68480;DHT22;55469;48.934;12.050;2023-03-19T01:36:28;9.40;90.30
68480;DHT22;55469;48.934;12.050;2023-03-19T01:38:54;9.40;90.30
68480;DHT22;55469;48.934;12.050;2023-03-19T01:41:22;9.50;90.40
68480;DHT22;55469;48.934;12.050;2023-03-19T01:43:48;9.40;90.40
68480;DHT22;55469;48.934;12.050;2023-03-19T01:48:58;9.40;90.50
68480;DHT22;55469;48.934;12.050;2023-03-19T01:51:29;9.30;90.40
68480;DHT22;55469;48.934;12.050;2023-03-19T01:53:59;9.30;90.40
68480;DHT22;55469;48.934;12.050;2023-03-19T01:56:35;9.30;90.40
68480;DHT22;55469;48.934;12.050;2023-03-19T01:59:27;9.30;90.40
68480;DHT22;55469;48.934;12.050;2023-03-19T02:01:58;9.30;90.50
68480;DHT22;55469;48.934;12.050;2023-03-19T02:04:28;9.30;90.50
68480;DHT22;55469;48.934;12.050;2023-03-19T02:06:57;9.30;90.50
68480;DHT22;55469;48.934;12.050;2023-03-19T02:09:25;9.20;90.50
68480;DHT22;55469;48.934;12.050;2023-03-19T02:11:52;9.30;90.50
68480;DHT22;55469;48.934;12.050;2023-03-19T02:14:18;9.30;90.50
68480;DHT22;55469;48.934;12.050;2023-03-19T02:16:44;9.30;90.50
68480;DHT22;55469;48.934;12.050;2023-03-19T02:19:19;9.20;90.50
68480;DHT22;55469;48.934;12.050;2023-03-19T02:22:06;9.20;90.50
68480;DHT22;55469;48.934;12.050;2023-03-19T02:24:36;9.20;90.50
68480;DHT22;55469;48.934;12.050;2023-03-19T02:27:06;9.20;90.60
68480;DHT22;55469;48.934;12.050;2023-03-19T02:29:33;9.20;90.60
68480;DHT22;55469;48.934;12.050;2023-03-19T02:31:59;9.20;90.50
68480;DHT22;55469;48.934;12.050;2023-03-19T02:36:58;9.20;90.50
68480;DHT22;55469;48.934;12.050;2023-03-19T02:39:35;9.20;90.50
68480;DHT22;55469;48.934;12.050;2023-03-19T02:42:09;9.20;90.50
68480;DHT22;55469;48.934;12.050;2023-03-19T02:44:36;9.20;90.50
68480;DHT22;55469;48.934;12.050;2023-03-19T02:47:02;9.20;90.50
68480;DHT22;55469;48.934;12.050;2023-03-19T02:49:28;9.10;90.50
68480;DHT22;55469;48.934;12.050;2023-03-19T02:51:54;9.10;90.50
68480;DHT22;55469;48.934;12.050;2023-03-19T02:54:20;9.10;90.50
68480;DHT22;55469;48.934;12.050;2023-03-19T02:56:46;9.10;90.50
68480;DHT22;55469;48.934;12.050;2023-03-19T02:59:13;9.10;90.60
68480;DHT22;55469;48.934;12.050;2023-03-19T03:01:39;9.10;90.60
68480;DHT22;55469;48.934;12.050;2023-03-19T03:04:05;9.00;90.60
68480;DHT22;55469;48.934;12.050;2023-03-19T03:06:31;9.10;90.60
68480;DHT22;55469;48.934;12.050;2023-03-19T03:08:56;9.00;90.60
68480;DHT22;55469;48.934;12.050;2023-03-19T03:11:22;9.00;90.60
68480;DHT22;55469;48.934;12.050;2023-03-19T03:13:48;9.00;90.60
68480;DHT22;55469;48.934;12.050;2023-03-19T03:16:14;9.00;90.60
68480;DHT22;55469;48.934;12.050;2023-03-19T03:18:40;9.00;90.60
68480;DHT22;55469;48.934;12.050;2023-03-19T03:21:06;9.00;90.60
68480;DHT22;55469;48.934;12.050;2023-03-19T03:23:32;8.90;90.60
68480;DHT22;55469;48.934;12.050;2023-03-19T03:25:58;9.00;90.60
68480;DHT22;55469;48.934;12.050;2023-03-19T03:28:23;9.00;90.70
68480;DHT22;55469;48.934;12.050;2023-03-19T03:30:49;8.90;90.60
68480;DHT22;55469;48.934;12.050;2023-03-19T03:33:15;8.90;90.60
68480;DHT22;55469;48.934;12.050;2023-03-19T03:35:41;8.90;90.60
68480;DHT22;55469;48.934;12.050;2023-03-19T03:38:07;8.90;90.60
68480;DHT22;55469;48.934;12.050;2023-03-19T03:40:34;8.90;90.60
68480;DHT22;55469;48.934;12.050;2023-03-19T03:43:00;8.90;90.60
68480;DHT22;55469;48.934;12.050;2023-03-19T03:45:26;8.90;90.70
68480;DHT22;55469;48.934;12.050;2023-03-19T03:47:52;8.90;90.70
68480;DHT22;55469;48.934;12.050;2023-03-19T03:50:18;8.90;90.70
68480;DHT22;55469;48.934;12.050;2023-03-19T03:52:43;8.90;90.70
68480;DHT22;55469;48.934;12.050;2023-03-19T03:55:09;8.90;90.70
68480;DHT22;55469;48.934;12.050;2023-03-19T03:57:35;8.90;90.70
68480;DHT22;55469;48.934;12.050;2023-03-19T04:00:02;8.80;90.70
68480;DHT22;55469;48.934;12.050;2023-03-19T04:02:28;8.80;90.70
68480;DHT22;55469;48.934;12.050;2023-03-19T04:04:54;8.90;90.70
68480;DHT22;55469;48.934;12.050;2023-03-19T04:07:20;8.80;90.70
68480;DHT22;55469;48.934;12.050;2023-03-19T04:09:46;8.80;90.70
68480;DHT22;55469;48.934;12.050;2023-03-19T04:12:12;8.80;90.70
68480;DHT22;55469;48.934;12.050;2023-03-19T04:14:39;8.80;90.70
68480;DHT22;55469;48.934;12.050;2023-03-19T04:17:04;8.80;90.70
68480;DHT22;55469;48.934;12.050;2023-03-19T04:19:30;8.80;90.70
68480;DHT22;55469;48.934;12.050;2023-03-19T04:21:57;8.80;90.70
68480;DHT22;55469;48.934;12.050;2023-03-19T04:24:24;8.80;90.70
68480;DHT22;55469;48.934;12.050;2023-03-19T04:26:50;8.70;90.70
68480;DHT22;55469;48.934;12.050;2023-03-19T04:29:17;8.80;90.70
68480;DHT22;55469;48.934;12.050;2023-03-19T04:31:43;8.80;90.70
68480;DHT22;55469;48.934;12.050;2023-03-19T04:34:10;8.70;90.70
68480;DHT22;55469;48.934;12.050;2023-03-19T04:36:36;8.70;90.70
68480;DHT22;55469;48.934;12.050;2023-03-19T04:39:03;8.70;90.70
68480;DHT22;55469;48.934;12.050;2023-03-19T04:41:29;8.70;90.80
68480;DHT22;55469;48.934;12.050;2023-03-19T04:43:54;8.70;90.80
68480;DHT22;55469;48.934;12.050;2023-03-19T04:46:20;8.70;90.80
68480;DHT22;55469;48.934;12.050;2023-03-19T04:48:46;8.70;90.80
68480;DHT22;55469;48.934;12.050;2023-03-19T04:51:12;8.70;90.80
68480;DHT22;55469;48.934;12.050;2023-03-19T04:53:38;8.70;90.80
68480;DHT22;55469;48.934;12.050;2023-03-19T04:56:04;8.70;90.80
68480;DHT22;55469;48.934;12.050;2023-03-19T04:58:32;8.60;90.80
68480;DHT22;55469;48.934;12.050;2023-03-19T05:00:57;8.60;90.80
68480;DHT22;55469;48.934;12.050;2023-03-19T05:03:23;8.60;90.80
68480;DHT22;55469;48.934;12.050;2023-03-19T05:05:49;8.60;90.80
68480;DHT22;55469;48.934;12.050;2023-03-19T05:08:15;8.60;90.80
68480;DHT22;55469;48.934;12.050;2023-03-19T05:10:40;8.70;90.80
68480;DHT22;55469;48.934;12.050;2023-03-19T05:13:06;8.60;90.80
68480;DHT22;55469;48.934;12.050;2023-03-19T05:15:33;8.60;90.80
68480;DHT22;55469;48.934;12.050;2023-03-19T05:17:58;8.60;90.80
68480;DHT22;55469;48.934;12.050;2023-03-19T05:20:24;8.60;90.80
68480;DHT22;55469;48.934;12.050;2023-03-19T05:22:51;8.60;90.80
68480;DHT22;55469;48.934;12.050;2023-03-19T05:25:18;8.60;90.90
68480;DHT22;55469;48.934;12.050;2023-03-19T05:27:44;8.60;90.90
68480;DHT22;55469;48.934;12.050;2023-03-19T05:30:10;8.50;90.80
68480;DHT22;55469;48.934;12.050;2023-03-19T05:32:36;8.60;90.90
68480;DHT22;55469;48.934;12.050;2023-03-19T05:35:03;8.50;90.90
68480;DHT22;55469;48.934;12.050;2023-03-19T05:37:29;8.50;90.80
68480;DHT22;55469;48.934;12.050;2023-03-19T05:39:56;8.60;90.90
68480;DHT22;55469;48.934;12.050;2023-03-19T05:42:21;8.50;90.80
68480;DHT22;55469;48.934;12.050;2023-03-19T05:44:47;8.50;90.80
68480;DHT22;55469;48.934;12.050;2023-03-19T05:47:13;8.50;90.90
68480;DHT22;55469;48.934;12.050;2023-03-19T05:49:39;8.50;90.90
68480;DHT22;55469;48.934;12.050;2023-03-19T05:52:04;8.50;91.40
68480;DHT22;55469;48.934;12.050;2023-03-19T05:54:30;8.50;90.90
68480;DHT22;55469;48.934;12.050;2023-03-19T05:56:56;8.50;90.90
68480;DHT22;55469;48.934;12.050;2023-03-19T05:59:22;8.50;90.90
68480;DHT22;55469;48.934;12.050;2023-03-19T06:01:47;8.50;90.90
68480;DHT22;55469;48.934;12.050;2023-03-19T06:04:13;8.50;90.90
68480;DHT22;55469;48.934;12.050;2023-03-19T06:06:39;8.50;90.90
68480;DHT22;55469;48.934;12.050;2023-03-19T06:09:05;8.50;90.90
68480;DHT22;55469;48.934;12.050;2023-03-19T06:11:30;8.50;90.90
68480;DHT22;55469;48.934;12.050;2023-03-19T06:13:56;8.50;90.90
68480;DHT22;55469;48.934;12.050;2023-03-19T06:16:22;8.40;90.90
68480;DHT22;55469;48.934;12.050;2023-03-19T06:18:48;8.50;90.90
68480;DHT22;55469;48.934;12.050;2023-03-19T06:21:13;8.40;90.90
68480;DHT22;55469;48.934;12.050;2023-03-19T06:23:40;8.50;90.90
68480;DHT22;55469;48.934;12.050;2023-03-19T06:26:06;8.50;90.90
68480;DHT22;55469;48.934;12.050;2023-03-19T06:28:32;8.40;90.90
68480;DHT22;55469;48.934;12.050;2023-03-19T06:30:57;8.40;90.90
68480;DHT22;55469;48.934;12.050;2023-03-19T06:33:23;8.50;90.90
68480;DHT22;55469;48.934;12.050;2023-03-19T06:35:52;8.40;90.90
68480;DHT22;55469;48.934;12.050;2023-03-19T06:38:18;8.50;90.90
68480;DHT22;55469;48.934;12.050;2023-03-19T06:40:43;8.40;90.90
68480;DHT22;55469;48.934;12.050;2023-03-19T06:43:09;8.40;90.90
68480;DHT22;55469;48.934;12.050;2023-03-19T06:45:35;8.40;90.90
68480;DHT22;55469;48.934;12.050;2023-03-19T06:48:01;8.50;90.90
68480;DHT22;55469;48.934;12.050;2023-03-19T06:50:26;8.50;90.90
68480;DHT22;55469;48.934;12.050;2023-03-19T06:52:52;8.50;90.90
68480;DHT22;55469;48.934;12.050;2023-03-19T06:55:18;8.50;90.80
68480;DHT22;55469;48.934;12.050;2023-03-19T06:57:47;8.50;90.80
68480;DHT22;55469;48.934;12.050;2023-03-19T07:00:15;8.50;90.80
68480;DHT22;55469;48.934;12.050;2023-03-19T07:02:41;8.50;90.80
68480;DHT22;55469;48.934;12.050;2023-03-19T07:05:08;8.50;90.80
68480;DHT22;55469;48.934;12.050;2023-03-19T07:07:33;8.50;90.80
68480;DHT22;55469;48.934;12.050;2023-03-19T07:09:59;8.50;90.80
68480;DHT22;55469;48.934;12.050;2023-03-19T07:12:25;8.50;90.80
68480;DHT22;55469;48.934;12.050;2023-03-19T07:14:54;8.50;90.80
68480;DHT22;55469;48.934;12.050;2023-03-19T07:17:24;8.50;90.80
68480;DHT22;55469;48.934;12.050;2023-03-19T07:19:50;8.50;90.80
68480;DHT22;55469;48.934;12.050;2023-03-19T07:22:16;8.50;90.80
68480;DHT22;55469;48.934;12.050;2023-03-19T07:24:42;8.50;90.80
68480;DHT22;55469;48.934;12.050;2023-03-19T07:27:08;8.50;90.80
68480;DHT22;55469;48.934;12.050;2023-03-19T07:29:35;8.50;90.80
68480;DHT22;55469;48.934;12.050;2023-03-19T07:32:01;8.50;90.70
68480;DHT22;55469;48.934;12.050;2023-03-19T07:34:26;8.50;90.70
68480;DHT22;55469;48.934;12.050;2023-03-19T07:36:52;8.50;90.70
68480;DHT22;55469;48.934;12.050;2023-03-19T07:39:19;8.50;90.70
68480;DHT22;55469;48.934;12.050;2023-03-19T07:41:45;8.50;90.70
68480;DHT22;55469;48.934;12.050;2023-03-19T07:44:13;8.50;90.70
68480;DHT22;55469;48.934;12.050;2023-03-19T07:46:40;8.50;90.70
68480;DHT22;55469;48.934;12.050;2023-03-19T07:49:05;8.50;90.70
68480;DHT22;55469;48.934;12.050;2023-03-19T07:51:32;8.50;90.70
68480;DHT22;55469;48.934;12.050;2023-03-19T07:53:58;8.50;90.60
68480;DHT22;55469;48.934;12.050;2023-03-19T07:56:24;8.60;90.70
68480;DHT22;55469;48.934;12.050;2023-03-19T07:58:50;8.50;90.60
68480;DHT22;55469;48.934;12.050;2023-03-19T08:01:16;8.60;90.70
68480;DHT22;55469;48.934;12.050;2023-03-19T08:03:42;8.50;90.70
68480;DHT22;55469;48.934;12.050;2023-03-19T08:06:08;8.60;90.60
68480;DHT22;55469;48.934;12.050;2023-03-19T08:08:34;8.60;90.60
68480;DHT22;55469;48.934;12.050;2023-03-19T08:11:01;8.60;90.70
68480;DHT22;55469;48.934;12.050;2023-03-19T08:13:27;8.60;90.70
68480;DHT22;55469;48.934;12.050;2023-03-19T08:15:53;8.60;90.60
68480;DHT22;55469;48.934;12.050;2023-03-19T08:18:20;8.60;90.60
68480;DHT22;55469;48.934;12.050;2023-03-19T08:20:47;8.60;90.60
68480;DHT22;55469;48.934;12.050;2023-03-19T08:23:13;8.60;90.50
68480;DHT22;55469;48.934;12.050;2023-03-19T08:25:39;8.70;90.50
68480;DHT22;55469;48.934;12.050;2023-03-19T08:28:06;8.70;90.50
68480;DHT22;55469;48.934;12.050;2023-03-19T08:30:34;8.70;90.40
68480;DHT22;55469;48.934;12.050;2023-03-19T08:33:01;8.70;90.40
68480;DHT22;55469;48.934;12.050;2023-03-19T08:35:27;8.70;90.40
68480;DHT22;55469;48.934;12.050;2023-03-19T08:37:54;8.80;90.40
68480;DHT22;55469;48.934;12.050;2023-03-19T08:40:20;8.80;90.30
68480;DHT22;55469;48.934;12.050;2023-03-19T08:42:46;8.80;90.20
68480;DHT22;55469;48.934;12.050;2023-03-19T08:45:14;8.90;90.20
68480;DHT22;55469;48.934;12.050;2023-03-19T08:47:41;8.90;90.60
68480;DHT22;55469;48.934;12.050;2023-03-19T08:50:08;8.90;90.20
68480;DHT22;55469;48.934;12.050;2023-03-19T08:52:34;9.00;90.00
68480;DHT22;55469;48.934;12.050;2023-03-19T08:55:00;9.00;89.80
68480;DHT22;55469;48.934;12.050;2023-03-19T08:57:26;9.00;89.70
68480;DHT22;55469;48.934;12.050;2023-03-19T08:59:52;9.10;89.70
68480;DHT22;55469;48.934;12.050;2023-03-19T09:02:18;9.10;89.50
68480;DHT22;55469;48.934;12.050;2023-03-19T09:04:44;9.10;89.40
68480;DHT22;55469;48.934;12.050;2023-03-19T09:07:10;9.20;89.50
68480;DHT22;55469;48.934;12.050;2023-03-19T09:09:38;9.20;89.60
68480;DHT22;55469;48.934;12.050;2023-03-19T09:12:05;9.20;89.50
68480;DHT22;55469;48.934;12.050;2023-03-19T09:14:33;9.20;89.50
68480;DHT22;55469;48.934;12.050;2023-03-19T09:16:59;9.20;89.50
68480;DHT22;55469;48.934;12.050;2023-03-19T09:19:24;9.20;89.40
68480;DHT22;55469;48.934;12.050;2023-03-19T09:21:51;9.20;89.40
68480;DHT22;55469;48.934;12.050;2023-03-19T09:24:17;9.20;89.40
68480;DHT22;55469;48.934;12.050;2023-03-19T09:26:44;9.30;89.50
68480;DHT22;55469;48.934;12.050;2023-03-19T09:29:11;9.30;89.50
68480;DHT22;55469;48.934;12.050;2023-03-19T09:31:37;9.30;89.40
68480;DHT22;55469;48.934;12.050;2023-03-19T09:34:03;9.30;89.40
68480;DHT22;55469;48.934;12.050;2023-03-19T09:36:28;9.30;89.40
68480;DHT22;55469;48.934;12.050;2023-03-19T09:38:54;9.30;89.40
68480;DHT22;55469;48.934;12.050;2023-03-19T09:44:44;9.30;89.40
68480;DHT22;55469;48.934;12.050;2023-03-19T09:50:00;9.40;89.40
68480;DHT22;55469;48.934;12.050;2023-03-19T09:57:48;9.40;89.50
68480;DHT22;55469;48.934;12.050;2023-03-19T10:00:26;9.40;89.50
68480;DHT22;55469;48.934;12.050;2023-03-19T10:12:46;9.30;89.70
68480;DHT22;55469;48.934;12.050;2023-03-19T10:15:21;9.30;89.90
68480;DHT22;55469;48.934;12.050;2023-03-19T10:17:59;9.30;90.00
68480;DHT22;55469;48.934;12.050;2023-03-19T10:23:32;9.40;90.10
68480;DHT22;55469;48.934;12.050;2023-03-19T10:26:03;9.40;90.20
68480;DHT22;55469;48.934;12.050;2023-03-19T10:28:31;9.40;90.40
68480;DHT22;55469;48.934;12.050;2023-03-19T10:31:06;9.40;90.40
68480;DHT22;55469;48.934;12.050;2023-03-19T10:33:44;9.40;90.30
68480;DHT22;55469;48.934;12.050;2023-03-19T10:36:19;9.50;90.40
68480;DHT22;55469;48.934;12.050;2023-03-19T10:38:46;9.50;90.50
68480;DHT22;55469;48.934;12.050;2023-03-19T10:41:18;9.50;90.60
68480;DHT22;55469;48.934;12.050;2023-03-19T10:43:57;9.40;90.50
68480;DHT22;55469;48.934;12.050;2023-03-19T10:46:25;9.50;90.50
68480;DHT22;55469;48.934;12.050;2023-03-19T10:48:51;9.50;90.40
68480;DHT22;55469;48.934;12.050;2023-03-19T10:51:22;9.50;90.40
68480;DHT22;55469;48.934;12.050;2023-03-19T10:53:52;9.50;90.40
68480;DHT22;55469;48.934;12.050;2023-03-19T10:56:22;9.50;90.40
68480;DHT22;55469;48.934;12.050;2023-03-19T10:59:25;9.60;90.40
68480;DHT22;55469;48.934;12.050;2023-03-19T11:01:58;9.60;90.30
68480;DHT22;55469;48.934;12.050;2023-03-19T11:04:47;9.60;90.30
68480;DHT22;55469;48.934;12.050;2023-03-19T11:07:18;9.60;90.40
68480;DHT22;55469;48.934;12.050;2023-03-19T11:09:48;9.60;90.30
68480;DHT22;55469;48.934;12.050;2023-03-19T11:12:21;9.60;90.30
68480;DHT22;55469;48.934;12.050;2023-03-19T11:14:52;9.70;90.30
68480;DHT22;55469;48.934;12.050;2023-03-19T11:17:36;9.60;90.20
68480;DHT22;55469;48.934;12.050;2023-03-19T11:22:55;9.70;90.10
68480;DHT22;55469;48.934;12.050;2023-03-19T11:26:06;9.70;90.10
68480;DHT22;55469;48.934;12.050;2023-03-19T11:28:26;9.70;90.10
68480;DHT22;55469;48.934;12.050;2023-03-19T11:31:20;9.80;90.10
68480;DHT22;55469;48.934;12.050;2023-03-19T11:48:19;9.90;89.60
68480;DHT22;55469;48.934;12.050;2023-03-19T11:54:03;10.00;89.50
68480;DHT22;55469;48.934;12.050;2023-03-19T11:56:43;10.00;89.50
68480;DHT22;55469;48.934;12.050;2023-03-19T11:59:16;10.00;89.30
68480;DHT22;55469;48.934;12.050;2023-03-19T12:02:24;10.00;89.30
68480;DHT22;55469;48.934;12.050;2023-03-19T12:05:13;10.10;89.30
68480;DHT22;55469;48.934;12.050;2023-03-19T12:10:50;10.20;89.30
68480;DHT22;55469;48.934;12.050;2023-03-19T12:24:52;10.20;89.30
68480;DHT22;55469;48.934;12.050;2023-03-19T12:30:36;10.20;89.20
68480;DHT22;55469;48.934;12.050;2023-03-19T12:33:13;10.20;89.30
68480;DHT22;55469;48.934;12.050;2023-03-19T12:35:55;10.20;89.20
68480;DHT22;55469;48.934;12.050;2023-03-19T12:38:26;10.20;89.20
68480;DHT22;55469;48.934;12.050;2023-03-19T12:41:12;10.30;89.20
68480;DHT22;55469;48.934;12.050;2023-03-19T12:44:04;10.30;89.60
68480;DHT22;55469;48.934;12.050;2023-03-19T12:46:47;10.40;89.40
68480;DHT22;55469;48.934;12.050;2023-03-19T12:49:20;10.50;89.00
68480;DHT22;55469;48.934;12.050;2023-03-19T12:51:58;10.60;88.90
68480;DHT22;55469;48.934;12.050;2023-03-19T12:54:32;10.60;88.90
68480;DHT22;55469;48.934;12.050;2023-03-19T12:57:20;10.70;88.80
68480;DHT22;55469;48.934;12.050;2023-03-19T13:05:33;10.70;88.90
68480;DHT22;55469;48.934;12.050;2023-03-19T13:08:22;10.80;89.20
68480;DHT22;55469;48.934;12.050;2023-03-19T13:10:54;10.90;89.00
68480;DHT22;55469;48.934;12.050;2023-03-19T13:16:08;11.00;89.50
68480;DHT22;55469;48.934;12.050;2023-03-19T13:21:59;11.00;89.50
68480;DHT22;55469;48.934;12.050;2023-03-19T13:24:35;11.20;90.00
68480;DHT22;55469;48.934;12.050;2023-03-19T13:27:06;11.40;90.10
68480;DHT22;55469;48.934;12.050;2023-03-19T13:29:35;11.40;90.10
68480;DHT22;55469;48.934;12.050;2023-03-19T13:32:41;11.40;90.10
68480;DHT22;55469;48.934;12.050;2023-03-19T13:35:35;11.40;90.00
68480;DHT22;55469;48.934;12.050;2023-03-19T13:38:16;11.50;90.00
68480;DHT22;55469;48.934;12.050;2023-03-19T13:40:50;11.50;90.00
68480;DHT22;55469;48.934;12.050;2023-03-19T13:46:43;11.80;89.70
68480;DHT22;55469;48.934;12.050;2023-03-19T13:49:23;12.40;88.50
68480;DHT22;55469;48.934;12.050;2023-03-19T13:51:58;12.70;86.70
68480;DHT22;55469;48.934;12.050;2023-03-19T13:54:40;13.10;85.60
68480;DHT22;55469;48.934;12.050;2023-03-19T13:59:42;13.10;85.20
68480;DHT22;55469;48.934;12.050;2023-03-19T14:04:56;13.20;85.50
68480;DHT22;55469;48.934;12.050;2023-03-19T14:07:27;13.20;85.70
68480;DHT22;55469;48.934;12.050;2023-03-19T14:25:23;13.80;84.20
68480;DHT22;55469;48.934;12.050;2023-03-19T14:28:01;13.80;83.90
68480;DHT22;55469;48.934;12.050;2023-03-19T14:30:45;13.90;83.90
68480;DHT22;55469;48.934;12.050;2023-03-19T14:36:03;13.90;83.80
68480;DHT22;55469;48.934;12.050;2023-03-19T14:41:14;14.00;83.60
68480;DHT22;55469;48.934;12.050;2023-03-19T14:44:12;14.00;83.50
68480;DHT22;55469;48.934;12.050;2023-03-19T14:56:19;14.10;83.00
68480;DHT22;55469;48.934;12.050;2023-03-19T14:58:54;14.10;82.90
68480;DHT22;55469;48.934;12.050;2023-03-19T15:01:22;14.10;82.80
68480;DHT22;55469;48.934;12.050;2023-03-19T15:04:03;14.20;82.60
68480;DHT22;55469;48.934;12.050;2023-03-19T15:06:38;14.30;82.40
68480;DHT22;55469;48.934;12.050;2023-03-19T15:09:11;14.30;82.10
68480;DHT22;55469;48.934;12.050;2023-03-19T15:15:19;14.40;81.80
68480;DHT22;55469;48.934;12.050;2023-03-19T15:17:59;14.40;81.90
68480;DHT22;55469;48.934;12.050;2023-03-19T15:20:32;14.40;81.80
68480;DHT22;55469;48.934;12.050;2023-03-19T15:23:02;14.40;81.70
68480;DHT22;55469;48.934;12.050;2023-03-19T15:25:31;14.50;81.70
68480;DHT22;55469;48.934;12.050;2023-03-19T15:28:05;14.50;81.50
68480;DHT22;55469;48.934;12.050;2023-03-19T15:30:32;14.50;81.60
68480;DHT22;55469;48.934;12.050;2023-03-19T15:32:58;14.60;81.60
68480;DHT22;55469;48.934;12.050;2023-03-19T15:35:29;14.60;81.40
68480;DHT22;55469;48.934;12.050;2023-03-19T15:37:59;14.60;81.40
68480;DHT22;55469;48.934;12.050;2023-03-19T15:40:30;14.60;81.60
68480;DHT22;55469;48.934;12.050;2023-03-19T15:42:59;14.70;81.70
68480;DHT22;55469;48.934;12.050;2023-03-19T15:45:28;14.80;81.80
68480;DHT22;55469;48.934;12.050;2023-03-19T15:50:39;14.70;82.00
68480;DHT22;55469;48.934;12.050;2023-03-19T15:53:17;14.80;82.00
68480;DHT22;55469;48.934;12.050;2023-03-19T15:55:48;14.80;81.90
68480;DHT22;55469;48.934;12.050;2023-03-19T15:58:22;14.80;82.30
68480;DHT22;55469;48.934;12.050;2023-03-19T16:00:54;14.80;83.00
68480;DHT22;55469;48.934;12.050;2023-03-19T16:03:25;14.90;82.60
68480;DHT22;55469;48.934;12.050;2023-03-19T16:06:01;15.00;82.30
68480;DHT22;55469;48.934;12.050;2023-03-19T16:08:29;15.00;82.30
68480;DHT22;55469;48.934;12.050;2023-03-19T16:14:20;15.20;82.70
68480;DHT22;55469;48.934;12.050;2023-03-19T16:16:58;15.20;82.90
68480;DHT22;55469;48.934;12.050;2023-03-19T16:19:36;15.20;82.80
68480;DHT22;55469;48.934;12.050;2023-03-19T16:22:16;15.20;82.70
68480;DHT22;55469;48.934;12.050;2023-03-19T16:24:45;15.20;82.80
68480;DHT22;55469;48.934;12.050;2023-03-19T16:29:58;15.20;83.10
68480;DHT22;55469;48.934;12.050;2023-03-19T16:32:26;15.30;83.30
68480;DHT22;55469;48.934;12.050;2023-03-19T16:35:03;15.20;82.90
68480;DHT22;55469;48.934;12.050;2023-03-19T16:37:43;15.20;84.00
68480;DHT22;55469;48.934;12.050;2023-03-19T16:42:44;15.40;84.30
68480;DHT22;55469;48.934;12.050;2023-03-19T16:47:53;15.60;83.90
68480;DHT22;55469;48.934;12.050;2023-03-19T16:50:31;15.60;83.50
68480;DHT22;55469;48.934;12.050;2023-03-19T16:53:01;15.60;84.10
68480;DHT22;55469;48.934;12.050;2023-03-19T16:55:33;15.60;83.20
68480;DHT22;55469;48.934;12.050;2023-03-19T16:58:02;15.60;82.90
68480;DHT22;55469;48.934;12.050;2023-03-19T17:00:32;15.60;82.90
68480;DHT22;55469;48.934;12.050;2023-03-19T17:02:59;15.60;82.90
68480;DHT22;55469;48.934;12.050;2023-03-19T17:05:27;15.60;83.00
68480;DHT22;55469;48.934;12.050;2023-03-19T17:07:53;15.70;83.00
68480;DHT22;55469;48.934;12.050;2023-03-19T17:10:25;15.50;83.20
68480;DHT22;55469;48.934;12.050;2023-03-19T17:12:53;15.50;83.60
68480;DHT22;55469;48.934;12.050;2023-03-19T17:15:30;15.60;83.50
68480;DHT22;55469;48.934;12.050;2023-03-19T17:18:00;15.60;82.80
68480;DHT22;55469;48.934;12.050;2023-03-19T17:20:33;15.60;82.90
68480;DHT22;55469;48.934;12.050;2023-03-19T17:23:03;15.30;82.70
68480;DHT22;55469;48.934;12.050;2023-03-19T17:25:34;14.90;82.90
68480;DHT22;55469;48.934;12.050;2023-03-19T17:28:00;14.70;83.40
68480;DHT22;55469;48.934;12.050;2023-03-19T17:30:26;14.70;82.80
68480;DHT22;55469;48.934;12.050;2023-03-19T17:32:51;14.90;82.50
68480;DHT22;55469;48.934;12.050;2023-03-19T17:35:20;15.10;82.40
68480;DHT22;55469;48.934;12.050;2023-03-19T17:37:46;15.30;82.10
68480;DHT22;55469;48.934;12.050;2023-03-19T17:40:19;15.30;82.10
68480;DHT22;55469;48.934;12.050;2023-03-19T17:42:55;15.40;82.50
68480;DHT22;55469;48.934;12.050;2023-03-19T17:45:26;15.40;82.80
68480;DHT22;55469;48.934;12.050;2023-03-19T17:47:56;15.50;82.80
68480;DHT22;55469;48.934;12.050;2023-03-19T17:50:25;15.40;83.00
68480;DHT22;55469;48.934;12.050;2023-03-19T17:52:53;15.50;82.80
68480;DHT22;55469;48.934;12.050;2023-03-19T17:55:23;15.50;82.50
68480;DHT22;55469;48.934;12.050;2023-03-19T17:57:50;15.50;82.20